sensor_id;sensor_type;location;lat;lon;timestamp;pressure;altitude;pressure_sealevel;temperature;humidity
8705;BME280;4389;41.932;25.904;2023-11-19T00:00:59;-16268.56;;;7.52;70.33
8705;BME280;4389;41.932;25.904;2023-11-19T00:03:26;-16269.63;;;7.56;69.94
8705;BME280;4389;41.932;25.904;2023-11-19T00:05:53;-16268.69;;;7.52;69.99
8705;BME280;4389;41.932;25.904;2023-11-19T00:08:22;-16268.03;;;7.50;70.34
8705;BME280;4389;41.932;25.904;2023-11-19T00:10:50;-16268.16;;;7.50;70.88
8705;BME280;4389;41.932;25.904;2023-11-19T00:13:17;-16268.16;;;7.50;70.74
8705;BME280;4389;41.932;25.904;2023-11-19T00:15:44;-16269.09;;;7.54;71.43
8705;BME280;4389;41.932;25.904;2023-11-19T00:18:12;-16269.09;;;7.54;70.76
8705;BME280;4389;41.932;25.904;2023-11-19T00:20:40;-16267.91;;;7.49;71.34
8705;BME280;4389;41.932;25.904;2023-11-19T00:23:08;-16268.03;;;7.50;71.52
8705;BME280;4389;41.932;25.904;2023-11-19T00:25:37;-16267.91;;;7.49;71.19
8705;BME280;4389;41.932;25.904;2023-11-19T00:28:04;-16267.91;;;7.49;71.53
8705;BME280;4389;41.932;25.904;2023-11-19T00:30:31;-16268.28;;;7.51;71.14
8705;BME280;4389;41.932;25.904;2023-11-19T00:32:58;-16267.38;;;7.47;71.35
8705;BME280;4389;41.932;25.904;2023-11-19T00:35:25;-16266.97;;;7.46;71.59
8705;BME280;4389;41.932;25.904;2023-11-19T00:37:52;-16266.44;;;7.44;71.86
8705;BME280;4389;41.932;25.904;2023-11-19T00:40:20;-16266.44;;;7.44;71.93
8705;BME280;4389;41.932;25.904;2023-11-19T00:42:50;-16265.91;;;7.42;71.99
8705;BME280;4389;41.932;25.904;2023-11-19T00:45:16;-16264.84;;;7.38;71.74
8705;BME280;4389;41.932;25.904;2023-11-19T00:47:43;-16265.09;;;7.39;72.47
8705;BME280;4389;41.932;25.904;2023-11-19T00:50:10;-16265.22;;;7.39;72.22
8705;BME280;4389;41.932;25.904;2023-11-19T00:52:38;-16265.91;;;7.42;71.95
8705;BME280;4389;41.932;25.904;2023-11-19T00:55:06;-16267.22;;;7.47;71.77
8705;BME280;4389;41.932;25.904;2023-11-19T00:57:33;-16268.56;;;7.52;71.27
8705;BME280;4389;41.932;25.904;2023-11-19T01:00:02;-16267.63;;;7.48;71.81
8705;BME280;4389;41.932;25.904;2023-11-19T01:02:34;-16269.63;;;7.56;70.94
8705;BME280;4389;41.932;25.904;2023-11-19T01:05:01;-16268.28;;;7.51;71.26
8705;BME280;4389;41.932;25.904;2023-11-19T01:07:28;-16268.56;;;7.52;71.69
8705;BME280;4389;41.932;25.904;2023-11-19T01:09:55;-16268.03;;;7.50;71.89
8705;BME280;4389;41.932;25.904;2023-11-19T01:12:22;-16268.03;;;7.50;71.66
8705;BME280;4389;41.932;25.904;2023-11-19T01:14:48;-16267.75;;;7.49;71.52
8705;BME280;4389;41.932;25.904;2023-11-19T01:17:17;-16268.16;;;7.50;72.09
8705;BME280;4389;41.932;25.904;2023-11-19T01:19:44;-16267.75;;;7.49;71.72
8705;BME280;4389;41.932;25.904;2023-11-19T01:22:11;-16267.50;;;7.48;71.52
8705;BME280;4389;41.932;25.904;2023-11-19T01:24:37;-16267.75;;;7.49;71.91
8705;BME280;4389;41.932;25.904;2023-11-19T01:27:04;-16268.81;;;7.53;71.03
8705;BME280;4389;41.932;25.904;2023-11-19T01:29:31;-16269.09;;;7.54;70.29
8705;BME280;4389;41.932;25.904;2023-11-19T01:31:58;-16270.69;;;7.60;69.13
8705;BME280;4389;41.932;25.904;2023-11-19T01:34:27;-16271.22;;;7.62;69.78
8705;BME280;4389;41.932;25.904;2023-11-19T01:36:54;-16270.44;;;7.59;69.85
8705;BME280;4389;41.932;25.904;2023-11-19T01:39:20;-16270.69;;;7.60;70.17
8705;BME280;4389;41.932;25.904;2023-11-19T01:41:48;-16269.63;;;7.56;69.90
8705;BME280;4389;41.932;25.904;2023-11-19T01:44:16;-16269.50;;;7.55;70.82
8705;BME280;4389;41.932;25.904;2023-11-19T01:46:44;-16270.03;;;7.57;70.38
8705;BME280;4389;41.932;25.904;2023-11-19T01:49:14;-16269.09;;;7.54;71.21
8705;BME280;4389;41.932;25.904;2023-11-19T01:51:42;-16268.69;;;7.52;71.31
8705;BME280;4389;41.932;25.904;2023-11-19T01:54:09;-16270.28;;;7.58;70.67
8705;BME280;4389;41.932;25.904;2023-11-19T01:56:38;-16269.50;;;7.55;71.33
8705;BME280;4389;41.932;25.904;2023-11-19T01:59:07;-16268.56;;;7.52;71.17
8705;BME280;4389;41.932;25.904;2023-11-19T02:01:35;-16268.56;;;7.52;71.58
8705;BME280;4389;41.932;25.904;2023-11-19T02:04:05;-16267.75;;;7.49;71.93
8705;BME280;4389;41.932;25.904;2023-11-19T02:06:33;-16267.38;;;7.47;71.84
8705;BME280;4389;41.932;25.904;2023-11-19T02:09:02;-16267.38;;;7.47;72.22
8705;BME280;4389;41.932;25.904;2023-11-19T02:11:33;-16266.69;;;7.45;71.70
8705;BME280;4389;41.932;25.904;2023-11-19T02:14:00;-16266.16;;;7.43;72.32
8705;BME280;4389;41.932;25.904;2023-11-19T02:16:29;-16265.75;;;7.41;71.72
8705;BME280;4389;41.932;25.904;2023-11-19T02:18:56;-16265.75;;;7.41;71.89
8705;BME280;4389;41.932;25.904;2023-11-19T02:21:23;-16265.75;;;7.41;71.36
8705;BME280;4389;41.932;25.904;2023-11-19T02:23:50;-16266.81;;;7.45;71.66
8705;BME280;4389;41.932;25.904;2023-11-19T02:26:26;-16266.69;;;7.45;71.34
8705;BME280;4389;41.932;25.904;2023-11-19T02:28:56;-16265.91;;;7.42;71.83
8705;BME280;4389;41.932;25.904;2023-11-19T02:31:23;-16265.22;;;7.39;71.71
8705;BME280;4389;41.932;25.904;2023-11-19T02:33:52;-16265.75;;;7.41;71.59
8705;BME280;4389;41.932;25.904;2023-11-19T02:36:20;-16265.50;;;7.40;71.95
8705;BME280;4389;41.932;25.904;2023-11-19T02:38:47;-16264.03;;;7.35;71.63
8705;BME280;4389;41.932;25.904;2023-11-19T02:41:14;-16264.56;;;7.37;71.36
8705;BME280;4389;41.932;25.904;2023-11-19T02:43:41;-16264.31;;;7.36;71.52
8705;BME280;4389;41.932;25.904;2023-11-19T02:46:09;-16263.50;;;7.33;71.57
8705;BME280;4389;41.932;25.904;2023-11-19T02:48:36;-16263.22;;;7.32;71.69
8705;BME280;4389;41.932;25.904;2023-11-19T02:51:04;-16262.97;;;7.31;72.66
8705;BME280;4389;41.932;25.904;2023-11-19T02:53:35;-16262.69;;;7.30;72.46
8705;BME280;4389;41.932;25.904;2023-11-19T02:56:03;-16261.78;;;7.26;72.30
8705;BME280;4389;41.932;25.904;2023-11-19T02:58:42;-16261.09;;;7.24;73.20
8705;BME280;4389;41.932;25.904;2023-11-19T03:01:11;-16260.56;;;7.22;73.08
8705;BME280;4389;41.932;25.904;2023-11-19T03:03:48;-16260.97;;;7.23;72.87
8705;BME280;4389;41.932;25.904;2023-11-19T03:06:19;-16260.31;;;7.21;72.79
8705;BME280;4389;41.932;25.904;2023-11-19T03:08:47;-16260.31;;;7.21;72.76
8705;BME280;4389;41.932;25.904;2023-11-19T03:11:14;-16260.84;;;7.23;73.18
8705;BME280;4389;41.932;25.904;2023-11-19T03:13:41;-16258.44;;;7.14;73.50
8705;BME280;4389;41.932;25.904;2023-11-19T03:16:08;-16257.63;;;7.11;73.20
8705;BME280;4389;41.932;25.904;2023-11-19T03:18:38;-16257.91;;;7.12;74.04
8705;BME280;4389;41.932;25.904;2023-11-19T03:21:06;-16258.03;;;7.12;73.84
8705;BME280;4389;41.932;25.904;2023-11-19T03:23:33;-16257.91;;;7.12;73.79
8705;BME280;4389;41.932;25.904;2023-11-19T03:26:00;-16256.84;;;7.08;74.75
8705;BME280;4389;41.932;25.904;2023-11-19T03:28:29;-16256.84;;;7.08;74.90
8705;BME280;4389;41.932;25.904;2023-11-19T03:30:56;-16256.03;;;7.05;74.74
8705;BME280;4389;41.932;25.904;2023-11-19T03:33:23;-16256.72;;;7.07;74.70
8705;BME280;4389;41.932;25.904;2023-11-19T03:35:54;-16256.84;;;7.08;74.57
8705;BME280;4389;41.932;25.904;2023-11-19T03:38:23;-16258.16;;;7.13;74.19
8705;BME280;4389;41.932;25.904;2023-11-19T03:40:50;-16258.44;;;7.14;73.60
8705;BME280;4389;41.932;25.904;2023-11-19T03:43:16;-16257.78;;;7.11;74.29
8705;BME280;4389;41.932;25.904;2023-11-19T03:45:44;-16258.72;;;7.15;73.82
8705;BME280;4389;41.932;25.904;2023-11-19T03:48:12;-16258.16;;;7.13;74.38
8705;BME280;4389;41.932;25.904;2023-11-19T03:50:41;-16258.31;;;7.13;73.75
8705;BME280;4389;41.932;25.904;2023-11-19T03:53:11;-16257.38;;;7.10;73.80
8705;BME280;4389;41.932;25.904;2023-11-19T03:55:38;-16257.38;;;7.10;74.70
8705;BME280;4389;41.932;25.904;2023-11-19T03:58:05;-16257.38;;;7.10;73.40
8705;BME280;4389;41.932;25.904;2023-11-19T04:00:32;-16257.09;;;7.09;73.88
8705;BME280;4389;41.932;25.904;2023-11-19T04:02:59;-16258.16;;;7.13;73.84
8705;BME280;4389;41.932;25.904;2023-11-19T04:05:26;-16257.91;;;7.12;73.33
8705;BME280;4389;41.932;25.904;2023-11-19T04:07:53;-16257.25;;;7.09;73.63
8705;BME280;4389;41.932;25.904;2023-11-19T04:10:21;-16257.78;;;7.11;73.62
8705;BME280;4389;41.932;25.904;2023-11-19T04:12:48;-16256.56;;;7.07;73.47
8705;BME280;4389;41.932;25.904;2023-11-19T04:15:15;-16257.38;;;7.10;73.38
8705;BME280;4389;41.932;25.904;2023-11-19T04:17:42;-16257.38;;;7.10;73.49
8705;BME280;4389;41.932;25.904;2023-11-19T04:20:09;-16258.84;;;7.15;73.06
8705;BME280;4389;41.932;25.904;2023-11-19T04:22:39;-16258.44;;;7.14;72.69
8705;BME280;4389;41.932;25.904;2023-11-19T04:25:07;-16259.38;;;7.17;72.89
8705;BME280;4389;41.932;25.904;2023-11-19T04:27:35;-16260.03;;;7.20;71.96
8705;BME280;4389;41.932;25.904;2023-11-19T04:30:02;-16259.78;;;7.19;72.16
8705;BME280;4389;41.932;25.904;2023-11-19T04:32:30;-16260.03;;;7.20;72.58
8705;BME280;4389;41.932;25.904;2023-11-19T04:34:57;-16259.78;;;7.19;72.64
8705;BME280;4389;41.932;25.904;2023-11-19T04:37:24;-16259.38;;;7.17;72.02
8705;BME280;4389;41.932;25.904;2023-11-19T04:39:50;-16258.84;;;7.15;72.77
8705;BME280;4389;41.932;25.904;2023-11-19T04:42:17;-16257.09;;;7.09;72.96
8705;BME280;4389;41.932;25.904;2023-11-19T04:44:46;-16257.50;;;7.10;73.63
8705;BME280;4389;41.932;25.904;2023-11-19T04:47:13;-16258.72;;;7.15;72.93
8705;BME280;4389;41.932;25.904;2023-11-19T04:49:40;-16258.16;;;7.13;73.04
8705;BME280;4389;41.932;25.904;2023-11-19T04:52:08;-16260.16;;;7.20;72.86
8705;BME280;4389;41.932;25.904;2023-11-19T04:54:40;-16258.56;;;7.14;73.98
8705;BME280;4389;41.932;25.904;2023-11-19T04:57:07;-16260.56;;;7.22;73.17
8705;BME280;4389;41.932;25.904;2023-11-19T04:59:36;-16259.25;;;7.17;72.95
8705;BME280;4389;41.932;25.904;2023-11-19T05:02:04;-16259.09;;;7.16;73.05
8705;BME280;4389;41.932;25.904;2023-11-19T05:04:31;-16260.16;;;7.20;73.34
8705;BME280;4389;41.932;25.904;2023-11-19T05:06:58;-16259.50;;;7.18;73.52
8705;BME280;4389;41.932;25.904;2023-11-19T05:09:25;-16259.50;;;7.18;73.31
8705;BME280;4389;41.932;25.904;2023-11-19T05:11:52;-16259.63;;;7.18;73.31
8705;BME280;4389;41.932;25.904;2023-11-19T05:14:19;-16259.38;;;7.17;73.18
8705;BME280;4389;41.932;25.904;2023-11-19T05:16:47;-16258.97;;;7.16;73.66
8705;BME280;4389;41.932;25.904;2023-11-19T05:19:15;-16259.78;;;7.19;73.29
8705;BME280;4389;41.932;25.904;2023-11-19T05:21:42;-16260.03;;;7.20;73.63
8705;BME280;4389;41.932;25.904;2023-11-19T05:24:09;-16260.03;;;7.20;73.79
8705;BME280;4389;41.932;25.904;2023-11-19T05:26:37;-16261.63;;;7.26;72.96
8705;BME280;4389;41.932;25.904;2023-11-19T05:29:04;-16261.09;;;7.24;73.04
8705;BME280;4389;41.932;25.904;2023-11-19T05:31:31;-16259.25;;;7.17;73.32
8705;BME280;4389;41.932;25.904;2023-11-19T05:33:58;-16260.03;;;7.20;72.94
8705;BME280;4389;41.932;25.904;2023-11-19T05:36:26;-16260.16;;;7.20;73.18
8705;BME280;4389;41.932;25.904;2023-11-19T05:38:54;-16260.56;;;7.22;73.23
8705;BME280;4389;41.932;25.904;2023-11-19T05:41:21;-16260.16;;;7.20;73.35
8705;BME280;4389;41.932;25.904;2023-11-19T05:43:48;-16260.84;;;7.23;73.66
8705;BME280;4389;41.932;25.904;2023-11-19T05:46:14;-16262.31;;;7.28;72.82
8705;BME280;4389;41.932;25.904;2023-11-19T05:48:42;-16262.16;;;7.28;73.32
8705;BME280;4389;41.932;25.904;2023-11-19T05:51:09;-16262.69;;;7.30;72.50
8705;BME280;4389;41.932;25.904;2023-11-19T05:53:37;-16263.50;;;7.33;73.14
8705;BME280;4389;41.932;25.904;2023-11-19T05:56:04;-16263.09;;;7.31;72.80
8705;BME280;4389;41.932;25.904;2023-11-19T05:58:35;-16263.75;;;7.34;72.86
8705;BME280;4389;41.932;25.904;2023-11-19T06:01:03;-16264.31;;;7.36;73.01
8705;BME280;4389;41.932;25.904;2023-11-19T06:03:32;-16265.09;;;7.39;71.98
8705;BME280;4389;41.932;25.904;2023-11-19T06:05:59;-16265.91;;;7.42;72.00
8705;BME280;4389;41.932;25.904;2023-11-19T06:08:26;-16266.81;;;7.45;72.28
8705;BME280;4389;41.932;25.904;2023-11-19T06:10:55;-16267.50;;;7.48;71.46
8705;BME280;4389;41.932;25.904;2023-11-19T06:13:21;-16268.28;;;7.51;71.34
8705;BME280;4389;41.932;25.904;2023-11-19T06:15:49;-16269.34;;;7.55;71.77
8705;BME280;4389;41.932;25.904;2023-11-19T06:18:17;-16268.69;;;7.52;71.93
8705;BME280;4389;41.932;25.904;2023-11-19T06:20:45;-16270.03;;;7.57;71.96
8705;BME280;4389;41.932;25.904;2023-11-19T06:23:12;-16270.69;;;7.60;71.36
8705;BME280;4389;41.932;25.904;2023-11-19T06:25:39;-16273.88;;;7.72;71.68
8705;BME280;4389;41.932;25.904;2023-11-19T06:28:07;-16274.16;;;7.73;71.00
8705;BME280;4389;41.932;25.904;2023-11-19T06:30:35;-16275.34;;;7.77;71.53
8705;BME280;4389;41.932;25.904;2023-11-19T06:33:02;-16274.94;;;7.76;71.74
8705;BME280;4389;41.932;25.904;2023-11-19T06:35:29;-16273.88;;;7.72;71.55
8705;BME280;4389;41.932;25.904;2023-11-19T06:38:01;-16271.88;;;7.64;70.94
8705;BME280;4389;41.932;25.904;2023-11-19T06:40:28;-16270.44;;;7.59;71.31
8705;BME280;4389;41.932;25.904;2023-11-19T06:42:55;-16267.91;;;7.49;72.00
8705;BME280;4389;41.932;25.904;2023-11-19T06:45:24;-16265.63;;;7.41;72.36
8705;BME280;4389;41.932;25.904;2023-11-19T06:47:51;-16265.09;;;7.39;72.19
8705;BME280;4389;41.932;25.904;2023-11-19T06:50:17;-16265.38;;;7.40;71.95
8705;BME280;4389;41.932;25.904;2023-11-19T06:52:44;-16265.22;;;7.39;72.49
8705;BME280;4389;41.932;25.904;2023-11-19T06:55:11;-16265.22;;;7.39;72.27
8705;BME280;4389;41.932;25.904;2023-11-19T06:57:38;-16266.28;;;7.43;72.03
8705;BME280;4389;41.932;25.904;2023-11-19T07:00:06;-16270.97;;;7.61;70.31
8705;BME280;4389;41.932;25.904;2023-11-19T07:02:35;-16276.28;;;7.81;70.45
8705;BME280;4389;41.932;25.904;2023-11-19T07:05:02;-16282.16;;;8.03;69.53
8705;BME280;4389;41.932;25.904;2023-11-19T07:07:30;-16287.75;;;8.24;69.11
8705;BME280;4389;41.932;25.904;2023-11-19T07:09:57;-16286.69;;;8.20;68.32
8705;BME280;4389;41.932;25.904;2023-11-19T07:12:24;-16288.53;;;8.27;68.09
8705;BME280;4389;41.932;25.904;2023-11-19T07:14:52;-16288.00;;;8.25;68.21
8705;BME280;4389;41.932;25.904;2023-11-19T07:17:20;-16292.66;;;8.42;68.23
8705;BME280;4389;41.932;25.904;2023-11-19T07:19:49;-16296.25;;;8.56;67.43
8705;BME280;4389;41.932;25.904;2023-11-19T07:22:16;-16294.53;;;8.49;66.47
8705;BME280;4389;41.932;25.904;2023-11-19T07:24:43;-16295.72;;;8.54;67.03
8705;BME280;4389;41.932;25.904;2023-11-19T07:27:10;-16292.94;;;8.43;66.00
8705;BME280;4389;41.932;25.904;2023-11-19T07:29:38;-16290.81;;;8.35;66.59
8705;BME280;4389;41.932;25.904;2023-11-19T07:32:05;-16291.72;;;8.39;65.33
8705;BME280;4389;41.932;25.904;2023-11-19T07:34:34;-16293.34;;;8.45;65.17
8705;BME280;4389;41.932;25.904;2023-11-19T07:37:02;-16290.81;;;8.35;64.81
8705;BME280;4389;41.932;25.904;2023-11-19T07:39:30;-16294.41;;;8.49;64.32
8705;BME280;4389;41.932;25.904;2023-11-19T07:41:57;-16292.25;;;8.41;64.16
8705;BME280;4389;41.932;25.904;2023-11-19T07:44:23;-16293.59;;;8.46;63.72
8705;BME280;4389;41.932;25.904;2023-11-19T07:46:51;-16296.25;;;8.56;63.45
8705;BME280;4389;41.932;25.904;2023-11-19T07:49:18;-16297.59;;;8.61;63.62
8705;BME280;4389;41.932;25.904;2023-11-19T07:51:45;-16300.91;;;8.73;63.42
8705;BME280;4389;41.932;25.904;2023-11-19T07:54:13;-16303.19;;;8.82;63.43
8705;BME280;4389;41.932;25.904;2023-11-19T07:56:40;-16307.03;;;8.96;63.46
8705;BME280;4389;41.932;25.904;2023-11-19T07:59:07;-16305.19;;;8.89;61.86
8705;BME280;4389;41.932;25.904;2023-11-19T08:01:34;-16303.72;;;8.83;61.42
8705;BME280;4389;41.932;25.904;2023-11-19T08:04:01;-16305.03;;;8.88;61.96
8705;BME280;4389;41.932;25.904;2023-11-19T08:06:28;-16307.19;;;8.96;61.29
8705;BME280;4389;41.932;25.904;2023-11-19T08:08:55;-16310.63;;;9.09;61.66
8705;BME280;4389;41.932;25.904;2023-11-19T08:11:23;-16314.63;;;9.24;61.07
8705;BME280;4389;41.932;25.904;2023-11-19T08:13:50;-16312.09;;;9.15;60.95
8705;BME280;4389;41.932;25.904;2023-11-19T08:16:17;-16315.81;;;9.29;60.63
8705;BME280;4389;41.932;25.904;2023-11-19T08:18:44;-16318.50;;;9.39;59.83
8705;BME280;4389;41.932;25.904;2023-11-19T08:21:11;-16321.03;;;9.48;60.41
8705;BME280;4389;41.932;25.904;2023-11-19T08:23:39;-16327.13;;;9.71;59.05
8705;BME280;4389;41.932;25.904;2023-11-19T08:26:06;-16327.66;;;9.73;57.44
8705;BME280;4389;41.932;25.904;2023-11-19T08:28:34;-16330.31;;;9.83;57.44
8705;BME280;4389;41.932;25.904;2023-11-19T08:31:01;-16331.00;;;9.86;56.50
8705;BME280;4389;41.932;25.904;2023-11-19T08:33:29;-16329.13;;;9.79;57.78
8705;BME280;4389;41.932;25.904;2023-11-19T08:35:56;-16333.00;;;9.93;57.74
8705;BME280;4389;41.932;25.904;2023-11-19T08:38:24;-16327.13;;;9.71;57.10
8705;BME280;4389;41.932;25.904;2023-11-19T08:40:51;-16326.59;;;9.69;57.43
8705;BME280;4389;41.932;25.904;2023-11-19T08:43:17;-16328.72;;;9.77;57.41
8705;BME280;4389;41.932;25.904;2023-11-19T08:45:46;-16325.28;;;9.64;56.92
8705;BME280;4389;41.932;25.904;2023-11-19T08:48:12;-16323.28;;;9.57;56.93
8705;BME280;4389;41.932;25.904;2023-11-19T08:50:39;-16328.19;;;9.75;57.23
8705;BME280;4389;41.932;25.904;2023-11-19T08:53:06;-16328.47;;;9.76;56.56
8705;BME280;4389;41.932;25.904;2023-11-19T08:55:33;-16327.94;;;9.74;55.39
8705;BME280;4389;41.932;25.904;2023-11-19T08:58:00;-16328.88;;;9.78;56.59
8705;BME280;4389;41.932;25.904;2023-11-19T09:00:27;-16333.00;;;9.93;56.74
8705;BME280;4389;41.932;25.904;2023-11-19T09:02:56;-16331.66;;;9.88;55.31
8705;BME280;4389;41.932;25.904;2023-11-19T09:05:23;-16333.00;;;9.93;56.35
8705;BME280;4389;41.932;25.904;2023-11-19T09:07:50;-16334.59;;;9.99;55.45
8705;BME280;4389;41.932;25.904;2023-11-19T09:10:17;-16335.78;;;10.04;55.46
8705;BME280;4389;41.932;25.904;2023-11-19T09:12:44;-16336.59;;;10.07;55.51
8705;BME280;4389;41.932;25.904;2023-11-19T09:15:10;-16338.31;;;10.13;55.71
8705;BME280;4389;41.932;25.904;2023-11-19T09:17:37;-16340.72;;;10.22;54.92
8705;BME280;4389;41.932;25.904;2023-11-19T09:20:07;-16340.03;;;10.20;56.00
8705;BME280;4389;41.932;25.904;2023-11-19T09:22:34;-16339.66;;;10.18;55.53
8705;BME280;4389;41.932;25.904;2023-11-19T09:25:01;-16344.56;;;10.37;55.46
8705;BME280;4389;41.932;25.904;2023-11-19T09:27:44;-16346.16;;;10.43;53.98
8705;BME280;4389;41.932;25.904;2023-11-19T09:31:12;-16347.09;;;10.46;54.64
8705;BME280;4389;41.932;25.904;2023-11-19T09:33:39;-16348.16;;;10.50;53.61
8705;BME280;4389;41.932;25.904;2023-11-19T09:36:08;-16352.69;;;10.67;54.04
8705;BME280;4389;41.932;25.904;2023-11-19T09:38:36;-16355.34;;;10.77;53.57
8705;BME280;4389;41.932;25.904;2023-11-19T09:41:04;-16362.91;;;11.06;52.96
8705;BME280;4389;41.932;25.904;2023-11-19T09:43:34;-16368.09;;;11.25;53.92
8705;BME280;4389;41.932;25.904;2023-11-19T09:46:04;-16367.16;;;11.22;52.22
8705;BME280;4389;41.932;25.904;2023-11-19T09:48:32;-16363.31;;;11.07;51.86
8705;BME280;4389;41.932;25.904;2023-11-19T09:51:00;-16361.19;;;10.99;52.42
8705;BME280;4389;41.932;25.904;2023-11-19T09:53:28;-16361.84;;;11.02;52.28
8705;BME280;4389;41.932;25.904;2023-11-19T09:55:55;-16362.13;;;11.03;52.50
8705;BME280;4389;41.932;25.904;2023-11-19T09:58:22;-16367.03;;;11.21;52.11
8705;BME280;4389;41.932;25.904;2023-11-19T10:00:50;-16365.84;;;11.17;50.61
8705;BME280;4389;41.932;25.904;2023-11-19T10:03:17;-16365.72;;;11.16;51.96
8705;BME280;4389;41.932;25.904;2023-11-19T10:05:44;-16368.25;;;11.26;50.98
8705;BME280;4389;41.932;25.904;2023-11-19T10:08:11;-16362.78;;;11.05;51.00
8705;BME280;4389;41.932;25.904;2023-11-19T10:10:40;-16366.50;;;11.19;52.31
8705;BME280;4389;41.932;25.904;2023-11-19T10:13:07;-16361.31;;;11.00;51.62
8705;BME280;4389;41.932;25.904;2023-11-19T10:15:36;-16360.66;;;10.97;51.92
8705;BME280;4389;41.932;25.904;2023-11-19T10:18:04;-16360.94;;;10.98;52.05
8705;BME280;4389;41.932;25.904;2023-11-19T10:20:35;-16368.63;;;11.27;52.32
8705;BME280;4389;41.932;25.904;2023-11-19T10:23:02;-16363.19;;;11.07;51.28
8705;BME280;4389;41.932;25.904;2023-11-19T10:25:29;-16362.78;;;11.05;51.81
8705;BME280;4389;41.932;25.904;2023-11-19T10:27:58;-16363.19;;;11.07;51.74
8705;BME280;4389;41.932;25.904;2023-11-19T10:30:27;-16367.56;;;11.23;50.61
8705;BME280;4389;41.932;25.904;2023-11-19T10:33:05;-16365.97;;;11.17;50.29
8705;BME280;4389;41.932;25.904;2023-11-19T10:35:33;-16363.97;;;11.10;51.11
8705;BME280;4389;41.932;25.904;2023-11-19T10:38:00;-16365.59;;;11.16;50.68
8705;BME280;4389;41.932;25.904;2023-11-19T10:40:40;-16370.38;;;11.34;51.21
8705;BME280;4389;41.932;25.904;2023-11-19T10:43:09;-16371.28;;;11.37;50.55
8705;BME280;4389;41.932;25.904;2023-11-19T10:45:36;-16371.44;;;11.38;49.74
8705;BME280;4389;41.932;25.904;2023-11-19T10:48:05;-16374.22;;;11.48;49.99
8705;BME280;4389;41.932;25.904;2023-11-19T10:50:33;-16374.50;;;11.49;50.58
8705;BME280;4389;41.932;25.904;2023-11-19T10:53:01;-16376.22;;;11.56;50.78
8705;BME280;4389;41.932;25.904;2023-11-19T10:55:31;-16376.34;;;11.56;49.26
8705;BME280;4389;41.932;25.904;2023-11-19T10:57:59;-16373.16;;;11.44;49.28
8705;BME280;4389;41.932;25.904;2023-11-19T11:00:30;-16370.22;;;11.33;49.63
8705;BME280;4389;41.932;25.904;2023-11-19T11:03:01;-16369.97;;;11.32;49.27
8705;BME280;4389;41.932;25.904;2023-11-19T11:05:32;-16369.16;;;11.29;50.20
8705;BME280;4389;41.932;25.904;2023-11-19T11:08:00;-16369.69;;;11.31;50.18
8705;BME280;4389;41.932;25.904;2023-11-19T11:10:28;-16366.91;;;11.21;49.88
8705;BME280;4389;41.932;25.904;2023-11-19T11:12:59;-16370.91;;;11.36;49.72
8705;BME280;4389;41.932;25.904;2023-11-19T11:15:31;-16369.03;;;11.29;49.35
8705;BME280;4389;41.932;25.904;2023-11-19T11:18:00;-16371.03;;;11.36;49.28
8705;BME280;4389;41.932;25.904;2023-11-19T11:20:29;-16373.69;;;11.46;50.10
8705;BME280;4389;41.932;25.904;2023-11-19T11:25:56;-16375.53;;;11.53;47.96
8705;BME280;4389;41.932;25.904;2023-11-19T11:28:33;-16376.22;;;11.56;47.67
8705;BME280;4389;41.932;25.904;2023-11-19T11:31:26;-16376.88;;;11.58;48.77
8705;BME280;4389;41.932;25.904;2023-11-19T11:34:15;-16378.47;;;11.64;49.00
8705;BME280;4389;41.932;25.904;2023-11-19T11:36:53;-16377.69;;;11.61;48.44
8705;BME280;4389;41.932;25.904;2023-11-19T11:39:26;-16375.81;;;11.54;48.79
8705;BME280;4389;41.932;25.904;2023-11-19T11:45:00;-16376.63;;;11.57;48.52
8705;BME280;4389;41.932;25.904;2023-11-19T11:50:30;-16373.69;;;11.46;48.37
8705;BME280;4389;41.932;25.904;2023-11-19T11:53:19;-16370.38;;;11.34;48.61
8705;BME280;4389;41.932;25.904;2023-11-19T11:55:56;-16368.38;;;11.26;49.39
8705;BME280;4389;41.932;25.904;2023-11-19T11:58:31;-16371.81;;;11.39;48.38
8705;BME280;4389;41.932;25.904;2023-11-19T12:01:00;-16375.28;;;11.52;48.67
8705;BME280;4389;41.932;25.904;2023-11-19T12:03:28;-16375.69;;;11.54;48.49
8705;BME280;4389;41.932;25.904;2023-11-19T12:05:57;-16377.69;;;11.61;47.68
8705;BME280;4389;41.932;25.904;2023-11-19T12:08:27;-16379.00;;;11.66;47.85
8705;BME280;4389;41.932;25.904;2023-11-19T12:10:55;-16377.16;;;11.59;46.92
8705;BME280;4389;41.932;25.904;2023-11-19T12:13:29;-16377.41;;;11.60;47.41
8705;BME280;4389;41.932;25.904;2023-11-19T12:16:10;-16378.47;;;11.64;48.14
8705;BME280;4389;41.932;25.904;2023-11-19T12:18:40;-16376.63;;;11.57;49.14
8705;BME280;4389;41.932;25.904;2023-11-19T12:21:09;-16377.41;;;11.60;48.67
8705;BME280;4389;41.932;25.904;2023-11-19T12:23:45;-16376.63;;;11.57;47.64
8705;BME280;4389;41.932;25.904;2023-11-19T12:26:35;-16377.69;;;11.61;47.74
8705;BME280;4389;41.932;25.904;2023-11-19T12:29:03;-16375.94;;;11.55;47.66
8705;BME280;4389;41.932;25.904;2023-11-19T12:31:33;-16375.53;;;11.53;48.22
8705;BME280;4389;41.932;25.904;2023-11-19T12:34:09;-16375.81;;;11.54;47.89
8705;BME280;4389;41.932;25.904;2023-11-19T12:36:41;-16375.16;;;11.52;48.03
8705;BME280;4389;41.932;25.904;2023-11-19T12:39:09;-16376.09;;;11.55;47.89
8705;BME280;4389;41.932;25.904;2023-11-19T12:41:53;-16377.81;;;11.62;47.11
8705;BME280;4389;41.932;25.904;2023-11-19T12:44:21;-16377.81;;;11.62;47.64
8705;BME280;4389;41.932;25.904;2023-11-19T12:46:59;-16378.47;;;11.64;48.67
8705;BME280;4389;41.932;25.904;2023-11-19T12:49:27;-16378.59;;;11.65;48.08
8705;BME280;4389;41.932;25.904;2023-11-19T12:51:55;-16378.59;;;11.65;47.48
8705;BME280;4389;41.932;25.904;2023-11-19T12:54:32;-16379.81;;;11.69;46.95
8705;BME280;4389;41.932;25.904;2023-11-19T12:56:59;-16380.34;;;11.71;46.73
8705;BME280;4389;41.932;25.904;2023-11-19T12:59:26;-16383.25;;;11.82;47.62
8705;BME280;4389;41.932;25.904;2023-11-19T13:01:56;-16377.69;;;11.61;47.08
8705;BME280;4389;41.932;25.904;2023-11-19T13:04:27;-16378.47;;;11.64;48.13
8705;BME280;4389;41.932;25.904;2023-11-19T13:06:57;-16376.63;;;11.57;47.60
8705;BME280;4389;41.932;25.904;2023-11-19T13:09:26;-16375.03;;;11.51;47.73
8705;BME280;4389;41.932;25.904;2023-11-19T13:11:54;-16372.88;;;11.43;48.20
8705;BME280;4389;41.932;25.904;2023-11-19T13:14:22;-16375.41;;;11.53;48.22
8705;BME280;4389;41.932;25.904;2023-11-19T13:16:49;-16373.69;;;11.46;47.93
8705;BME280;4389;41.932;25.904;2023-11-19T13:19:16;-16372.63;;;11.42;48.25
8705;BME280;4389;41.932;25.904;2023-11-19T13:21:44;-16372.63;;;11.42;47.31
8705;BME280;4389;41.932;25.904;2023-11-19T13:24:14;-16371.28;;;11.37;47.47